sensor_id;sensor_type;location;lat;lon;timestamp;temperature;humidity
30648;DHT22;17683;53.360;9.736;2023-08-24T00:00:40;18.50;99.90
30648;DHT22;17683;53.360;9.736;2023-08-24T00:03:06;18.50;99.90
30648;DHT22;17683;53.360;9.736;2023-08-24T00:05:36;18.40;99.90
30648;DHT22;17683;53.360;9.736;2023-08-24T00:08:06;18.30;99.90
30648;DHT22;17683;53.360;9.736;2023-08-24T00:10:33;18.30;99.90
30648;DHT22;17683;53.360;9.736;2023-08-24T00:12:59;18.30;99.90
30648;DHT22;17683;53.360;9.736;2023-08-24T00:15:26;18.20;99.90
30648;DHT22;17683;53.360;9.736;2023-08-24T00:17:52;18.20;99.90
30648;DHT22;17683;53.360;9.736;2023-08-24T00:20:18;18.10;99.90
30648;DHT22;17683;53.360;9.736;2023-08-24T00:22:45;18.10;99.90
30648;DHT22;17683;53.360;9.736;2023-08-24T00:25:11;18.10;99.90
30648;DHT22;17683;53.360;9.736;2023-08-24T00:27:37;18.10;99.90
30648;DHT22;17683;53.360;9.736;2023-08-24T00:30:05;18.10;99.90
30648;DHT22;17683;53.360;9.736;2023-08-24T00:32:35;18.10;99.90
30648;DHT22;17683;53.360;9.736;2023-08-24T00:35:05;18.10;99.90
30648;DHT22;17683;53.360;9.736;2023-08-24T00:37:32;18.10;99.90
30648;DHT22;17683;53.360;9.736;2023-08-24T00:40:01;18.10;99.90
30648;DHT22;17683;53.360;9.736;2023-08-24T00:42:33;18.10;99.90
30648;DHT22;17683;53.360;9.736;2023-08-24T00:44:58;18.10;99.90
30648;DHT22;17683;53.360;9.736;2023-08-24T00:47:24;18.10;99.90
30648;DHT22;17683;53.360;9.736;2023-08-24T00:49:50;18.10;99.90
30648;DHT22;17683;53.360;9.736;2023-08-24T00:52:16;18.00;99.90
30648;DHT22;17683;53.360;9.736;2023-08-24T00:54:42;18.00;99.90
30648;DHT22;17683;53.360;9.736;2023-08-24T00:57:09;18.00;99.90
30648;DHT22;17683;53.360;9.736;2023-08-24T00:59:35;18.00;99.90
30648;DHT22;17683;53.360;9.736;2023-08-24T01:02:02;18.00;99.90
30648;DHT22;17683;53.360;9.736;2023-08-24T01:04:27;18.00;99.90
30648;DHT22;17683;53.360;9.736;2023-08-24T01:06:53;18.00;99.90
30648;DHT22;17683;53.360;9.736;2023-08-24T01:09:20;18.00;99.90
30648;DHT22;17683;53.360;9.736;2023-08-24T01:12:05;17.90;99.90
30648;DHT22;17683;53.360;9.736;2023-08-24T01:17:23;17.90;99.90
30648;DHT22;17683;53.360;9.736;2023-08-24T01:19:52;17.80;99.90
30648;DHT22;17683;53.360;9.736;2023-08-24T01:27:36;17.70;99.90
30648;DHT22;17683;53.360;9.736;2023-08-24T01:30:06;17.80;99.90
30648;DHT22;17683;53.360;9.736;2023-08-24T01:32:32;17.80;99.90
30648;DHT22;17683;53.360;9.736;2023-08-24T01:35:00;17.80;99.90
30648;DHT22;17683;53.360;9.736;2023-08-24T01:37:26;17.70;99.90
30648;DHT22;17683;53.360;9.736;2023-08-24T01:42:24;17.70;99.90
30648;DHT22;17683;53.360;9.736;2023-08-24T01:44:56;17.60;99.90
30648;DHT22;17683;53.360;9.736;2023-08-24T01:47:25;17.60;99.90
30648;DHT22;17683;53.360;9.736;2023-08-24T01:49:52;17.60;99.90
30648;DHT22;17683;53.360;9.736;2023-08-24T01:52:18;17.60;99.90
30648;DHT22;17683;53.360;9.736;2023-08-24T01:54:44;17.50;99.90
30648;DHT22;17683;53.360;9.736;2023-08-24T01:57:10;17.50;99.90
30648;DHT22;17683;53.360;9.736;2023-08-24T01:59:36;17.50;99.90
30648;DHT22;17683;53.360;9.736;2023-08-24T02:02:02;17.50;99.90
30648;DHT22;17683;53.360;9.736;2023-08-24T02:04:28;17.50;99.90
30648;DHT22;17683;53.360;9.736;2023-08-24T02:06:54;17.40;99.90
30648;DHT22;17683;53.360;9.736;2023-08-24T02:09:19;17.40;99.90
30648;DHT22;17683;53.360;9.736;2023-08-24T02:11:45;17.40;99.90
30648;DHT22;17683;53.360;9.736;2023-08-24T02:14:10;17.40;99.90
30648;DHT22;17683;53.360;9.736;2023-08-24T02:16:36;17.40;99.90
30648;DHT22;17683;53.360;9.736;2023-08-24T02:19:02;17.40;99.90
30648;DHT22;17683;53.360;9.736;2023-08-24T02:21:28;17.40;99.90
30648;DHT22;17683;53.360;9.736;2023-08-24T02:23:53;17.40;99.90
30648;DHT22;17683;53.360;9.736;2023-08-24T02:26:19;17.30;99.90
30648;DHT22;17683;53.360;9.736;2023-08-24T02:28:46;17.30;99.90
30648;DHT22;17683;53.360;9.736;2023-08-24T02:31:12;17.30;99.90
30648;DHT22;17683;53.360;9.736;2023-08-24T02:33:37;17.30;99.90
30648;DHT22;17683;53.360;9.736;2023-08-24T02:36:03;17.20;99.90
30648;DHT22;17683;53.360;9.736;2023-08-24T02:38:29;17.20;99.90
30648;DHT22;17683;53.360;9.736;2023-08-24T02:41:05;17.20;99.90
30648;DHT22;17683;53.360;9.736;2023-08-24T02:43:32;17.10;99.90
30648;DHT22;17683;53.360;9.736;2023-08-24T02:46:09;17.10;99.90
30648;DHT22;17683;53.360;9.736;2023-08-24T02:48:35;17.00;99.90
30648;DHT22;17683;53.360;9.736;2023-08-24T02:51:02;17.00;99.90
30648;DHT22;17683;53.360;9.736;2023-08-24T02:53:29;17.00;99.90
30648;DHT22;17683;53.360;9.736;2023-08-24T02:55:55;16.90;99.90
30648;DHT22;17683;53.360;9.736;2023-08-24T02:58:22;17.00;99.90
30648;DHT22;17683;53.360;9.736;2023-08-24T03:00:47;17.00;99.90
30648;DHT22;17683;53.360;9.736;2023-08-24T03:03:16;17.00;99.90
30648;DHT22;17683;53.360;9.736;2023-08-24T03:05:56;16.90;99.90
30648;DHT22;17683;53.360;9.736;2023-08-24T03:08:23;16.90;99.90
30648;DHT22;17683;53.360;9.736;2023-08-24T03:10:49;16.90;99.90
30648;DHT22;17683;53.360;9.736;2023-08-24T03:13:14;16.90;99.90
30648;DHT22;17683;53.360;9.736;2023-08-24T03:15:40;16.80;99.90
30648;DHT22;17683;53.360;9.736;2023-08-24T03:18:06;16.80;99.90
30648;DHT22;17683;53.360;9.736;2023-08-24T03:20:32;16.80;99.90
30648;DHT22;17683;53.360;9.736;2023-08-24T03:22:57;16.70;99.90
30648;DHT22;17683;53.360;9.736;2023-08-24T03:25:23;16.70;99.90
30648;DHT22;17683;53.360;9.736;2023-08-24T03:27:49;16.70;99.90
30648;DHT22;17683;53.360;9.736;2023-08-24T03:30:16;16.70;99.90
30648;DHT22;17683;53.360;9.736;2023-08-24T03:32:41;16.70;99.90
30648;DHT22;17683;53.360;9.736;2023-08-24T03:35:07;16.70;99.90
30648;DHT22;17683;53.360;9.736;2023-08-24T03:37:33;16.70;99.90
30648;DHT22;17683;53.360;9.736;2023-08-24T03:39:59;16.70;99.90
30648;DHT22;17683;53.360;9.736;2023-08-24T03:42:25;16.70;99.90
30648;DHT22;17683;53.360;9.736;2023-08-24T03:44:50;16.70;99.90
30648;DHT22;17683;53.360;9.736;2023-08-24T03:47:16;16.60;99.90
30648;DHT22;17683;53.360;9.736;2023-08-24T03:49:44;16.60;99.90
30648;DHT22;17683;53.360;9.736;2023-08-24T03:52:10;16.60;99.90
30648;DHT22;17683;53.360;9.736;2023-08-24T03:54:36;16.50;99.90
30648;DHT22;17683;53.360;9.736;2023-08-24T03:57:02;16.50;99.90
30648;DHT22;17683;53.360;9.736;2023-08-24T03:59:28;16.50;99.90
30648;DHT22;17683;53.360;9.736;2023-08-24T04:01:53;16.50;99.90
30648;DHT22;17683;53.360;9.736;2023-08-24T04:04:20;16.50;99.90
30648;DHT22;17683;53.360;9.736;2023-08-24T04:06:45;16.40;99.90
30648;DHT22;17683;53.360;9.736;2023-08-24T04:09:11;16.30;99.90
30648;DHT22;17683;53.360;9.736;2023-08-24T04:11:37;16.30;99.90
30648;DHT22;17683;53.360;9.736;2023-08-24T04:14:02;16.40;99.90
30648;DHT22;17683;53.360;9.736;2023-08-24T04:16:28;16.40;99.90
30648;DHT22;17683;53.360;9.736;2023-08-24T04:18:54;16.40;99.90
30648;DHT22;17683;53.360;9.736;2023-08-24T04:21:19;16.40;99.90
30648;DHT22;17683;53.360;9.736;2023-08-24T04:23:45;16.40;99.90
30648;DHT22;17683;53.360;9.736;2023-08-24T04:26:11;16.40;99.90
30648;DHT22;17683;53.360;9.736;2023-08-24T04:28:37;16.40;99.90
30648;DHT22;17683;53.360;9.736;2023-08-24T04:31:03;16.40;99.90
30648;DHT22;17683;53.360;9.736;2023-08-24T04:33:29;16.40;99.90
30648;DHT22;17683;53.360;9.736;2023-08-24T04:35:54;16.40;99.90
30648;DHT22;17683;53.360;9.736;2023-08-24T04:38:20;16.30;99.90
30648;DHT22;17683;53.360;9.736;2023-08-24T04:43:12;16.30;99.90
30648;DHT22;17683;53.360;9.736;2023-08-24T04:45:38;16.40;99.90
30648;DHT22;17683;53.360;9.736;2023-08-24T04:48:04;16.40;99.90
30648;DHT22;17683;53.360;9.736;2023-08-24T04:50:29;16.40;99.90
30648;DHT22;17683;53.360;9.736;2023-08-24T04:52:55;16.40;99.90
30648;DHT22;17683;53.360;9.736;2023-08-24T04:55:21;16.30;99.90
30648;DHT22;17683;53.360;9.736;2023-08-24T04:57:46;16.30;99.90
30648;DHT22;17683;53.360;9.736;2023-08-24T05:00:13;16.30;99.90
30648;DHT22;17683;53.360;9.736;2023-08-24T05:02:42;16.30;99.90
30648;DHT22;17683;53.360;9.736;2023-08-24T05:05:08;16.30;99.90
30648;DHT22;17683;53.360;9.736;2023-08-24T05:07:37;16.30;99.90
30648;DHT22;17683;53.360;9.736;2023-08-24T05:10:04;16.30;99.90
30648;DHT22;17683;53.360;9.736;2023-08-24T05:12:29;16.30;99.90
30648;DHT22;17683;53.360;9.736;2023-08-24T05:14:55;16.20;99.90
30648;DHT22;17683;53.360;9.736;2023-08-24T05:17:21;16.30;99.90
30648;DHT22;17683;53.360;9.736;2023-08-24T05:19:54;16.30;99.90
30648;DHT22;17683;53.360;9.736;2023-08-24T05:22:20;16.20;99.90
30648;DHT22;17683;53.360;9.736;2023-08-24T05:24:46;16.10;99.90
30648;DHT22;17683;53.360;9.736;2023-08-24T05:27:12;16.10;99.90
30648;DHT22;17683;53.360;9.736;2023-08-24T05:29:38;16.20;99.90
30648;DHT22;17683;53.360;9.736;2023-08-24T05:32:04;16.20;99.90
30648;DHT22;17683;53.360;9.736;2023-08-24T05:34:29;16.20;99.90
30648;DHT22;17683;53.360;9.736;2023-08-24T05:36:55;16.20;99.90
30648;DHT22;17683;53.360;9.736;2023-08-24T05:39:21;16.20;99.90
30648;DHT22;17683;53.360;9.736;2023-08-24T05:41:50;16.20;99.90
30648;DHT22;17683;53.360;9.736;2023-08-24T05:44:16;16.30;99.90
30648;DHT22;17683;53.360;9.736;2023-08-24T05:46:42;16.30;99.90
30648;DHT22;17683;53.360;9.736;2023-08-24T05:49:08;16.30;99.90
30648;DHT22;17683;53.360;9.736;2023-08-24T05:51:34;16.30;99.90
30648;DHT22;17683;53.360;9.736;2023-08-24T05:54:00;16.40;99.90
30648;DHT22;17683;53.360;9.736;2023-08-24T05:56:26;16.40;99.90
30648;DHT22;17683;53.360;9.736;2023-08-24T05:58:51;16.50;99.90
30648;DHT22;17683;53.360;9.736;2023-08-24T06:01:17;16.60;99.90
30648;DHT22;17683;53.360;9.736;2023-08-24T06:03:43;16.70;99.90
30648;DHT22;17683;53.360;9.736;2023-08-24T06:06:09;16.90;99.90
30648;DHT22;17683;53.360;9.736;2023-08-24T06:08:35;17.00;99.90
30648;DHT22;17683;53.360;9.736;2023-08-24T06:11:01;17.30;99.90
30648;DHT22;17683;53.360;9.736;2023-08-24T06:13:27;17.50;99.90
30648;DHT22;17683;53.360;9.736;2023-08-24T06:15:54;17.70;99.90
30648;DHT22;17683;53.360;9.736;2023-08-24T06:18:20;17.90;99.90
30648;DHT22;17683;53.360;9.736;2023-08-24T06:20:46;18.10;99.90
30648;DHT22;17683;53.360;9.736;2023-08-24T06:23:12;18.20;99.90
30648;DHT22;17683;53.360;9.736;2023-08-24T06:25:40;18.20;99.90
30648;DHT22;17683;53.360;9.736;2023-08-24T06:28:05;18.40;99.90
30648;DHT22;17683;53.360;9.736;2023-08-24T06:30:32;18.50;99.90
30648;DHT22;17683;53.360;9.736;2023-08-24T06:33:03;18.60;99.90
30648;DHT22;17683;53.360;9.736;2023-08-24T06:35:29;18.50;99.90
30648;DHT22;17683;53.360;9.736;2023-08-24T06:37:54;18.50;99.90
30648;DHT22;17683;53.360;9.736;2023-08-24T06:40:20;18.50;99.90
30648;DHT22;17683;53.360;9.736;2023-08-24T06:42:46;18.70;99.90
30648;DHT22;17683;53.360;9.736;2023-08-24T06:45:11;18.80;99.90
30648;DHT22;17683;53.360;9.736;2023-08-24T06:47:38;19.00;99.90
30648;DHT22;17683;53.360;9.736;2023-08-24T06:50:05;19.10;99.90
30648;DHT22;17683;53.360;9.736;2023-08-24T06:52:31;19.30;99.90
30648;DHT22;17683;53.360;9.736;2023-08-24T06:54:56;19.40;99.90
30648;DHT22;17683;53.360;9.736;2023-08-24T06:57:22;19.50;99.90
30648;DHT22;17683;53.360;9.736;2023-08-24T06:59:48;19.70;99.90
30648;DHT22;17683;53.360;9.736;2023-08-24T07:02:14;19.70;99.90
30648;DHT22;17683;53.360;9.736;2023-08-24T07:04:40;19.80;99.90
30648;DHT22;17683;53.360;9.736;2023-08-24T07:07:06;20.00;99.90
30648;DHT22;17683;53.360;9.736;2023-08-24T07:09:32;20.20;99.90
30648;DHT22;17683;53.360;9.736;2023-08-24T07:11:58;20.40;99.90
30648;DHT22;17683;53.360;9.736;2023-08-24T07:14:25;20.50;99.90
30648;DHT22;17683;53.360;9.736;2023-08-24T07:16:50;20.60;99.90
30648;DHT22;17683;53.360;9.736;2023-08-24T07:19:16;20.70;99.90
30648;DHT22;17683;53.360;9.736;2023-08-24T07:21:42;20.90;99.90
30648;DHT22;17683;53.360;9.736;2023-08-24T07:24:07;21.00;99.90
30648;DHT22;17683;53.360;9.736;2023-08-24T07:26:33;21.10;99.90
30648;DHT22;17683;53.360;9.736;2023-08-24T07:28:59;21.20;99.90
30648;DHT22;17683;53.360;9.736;2023-08-24T07:31:25;21.20;99.90
30648;DHT22;17683;53.360;9.736;2023-08-24T07:33:51;21.00;99.90
30648;DHT22;17683;53.360;9.736;2023-08-24T07:36:16;20.90;99.90
30648;DHT22;17683;53.360;9.736;2023-08-24T07:38:42;21.10;99.90
30648;DHT22;17683;53.360;9.736;2023-08-24T07:41:08;21.20;99.90
30648;DHT22;17683;53.360;9.736;2023-08-24T07:43:34;21.30;99.90
30648;DHT22;17683;53.360;9.736;2023-08-24T07:46:00;21.40;99.90
30648;DHT22;17683;53.360;9.736;2023-08-24T07:48:26;21.50;99.90
30648;DHT22;17683;53.360;9.736;2023-08-24T07:50:51;21.50;99.90
30648;DHT22;17683;53.360;9.736;2023-08-24T07:53:17;21.30;99.90
30648;DHT22;17683;53.360;9.736;2023-08-24T07:55:43;21.50;99.90
30648;DHT22;17683;53.360;9.736;2023-08-24T07:58:09;21.60;99.90
30648;DHT22;17683;53.360;9.736;2023-08-24T08:00:34;21.70;99.90
30648;DHT22;17683;53.360;9.736;2023-08-24T08:03:00;21.90;99.90
30648;DHT22;17683;53.360;9.736;2023-08-24T08:05:26;22.00;99.90
30648;DHT22;17683;53.360;9.736;2023-08-24T08:07:52;22.10;99.90
30648;DHT22;17683;53.360;9.736;2023-08-24T08:10:17;22.10;99.90
30648;DHT22;17683;53.360;9.736;2023-08-24T08:12:45;22.20;99.90
30648;DHT22;17683;53.360;9.736;2023-08-24T08:15:11;22.20;99.90
30648;DHT22;17683;53.360;9.736;2023-08-24T08:17:37;22.30;99.90
30648;DHT22;17683;53.360;9.736;2023-08-24T08:20:03;22.50;99.90
30648;DHT22;17683;53.360;9.736;2023-08-24T08:22:28;22.50;99.90
30648;DHT22;17683;53.360;9.736;2023-08-24T08:24:54;22.50;99.90
30648;DHT22;17683;53.360;9.736;2023-08-24T08:27:22;22.60;99.90
30648;DHT22;17683;53.360;9.736;2023-08-24T08:29:50;22.70;99.90
30648;DHT22;17683;53.360;9.736;2023-08-24T08:32:16;22.80;99.90
30648;DHT22;17683;53.360;9.736;2023-08-24T08:34:42;22.80;99.90
30648;DHT22;17683;53.360;9.736;2023-08-24T08:37:07;23.00;99.90
30648;DHT22;17683;53.360;9.736;2023-08-24T08:39:33;23.10;99.90
30648;DHT22;17683;53.360;9.736;2023-08-24T08:41:59;23.00;99.90
30648;DHT22;17683;53.360;9.736;2023-08-24T08:44:30;23.10;99.90
30648;DHT22;17683;53.360;9.736;2023-08-24T08:46:57;23.20;99.90
30648;DHT22;17683;53.360;9.736;2023-08-24T08:49:23;23.30;99.90
30648;DHT22;17683;53.360;9.736;2023-08-24T08:51:50;23.20;99.90
30648;DHT22;17683;53.360;9.736;2023-08-24T08:54:17;23.20;99.90
30648;DHT22;17683;53.360;9.736;2023-08-24T08:56:42;23.20;99.90
30648;DHT22;17683;53.360;9.736;2023-08-24T08:59:09;23.40;99.90
30648;DHT22;17683;53.360;9.736;2023-08-24T09:01:37;23.50;99.90
30648;DHT22;17683;53.360;9.736;2023-08-24T09:04:04;23.50;99.90
30648;DHT22;17683;53.360;9.736;2023-08-24T09:06:31;23.80;99.90
30648;DHT22;17683;53.360;9.736;2023-08-24T09:08:57;23.90;99.90
30648;DHT22;17683;53.360;9.736;2023-08-24T09:11:23;24.00;99.90
30648;DHT22;17683;53.360;9.736;2023-08-24T09:13:49;24.00;99.90
30648;DHT22;17683;53.360;9.736;2023-08-24T09:16:15;24.10;99.90
30648;DHT22;17683;53.360;9.736;2023-08-24T09:18:43;24.20;99.90
30648;DHT22;17683;53.360;9.736;2023-08-24T09:21:14;24.30;99.90
30648;DHT22;17683;53.360;9.736;2023-08-24T09:23:53;24.30;99.90
30648;DHT22;17683;53.360;9.736;2023-08-24T09:26:33;24.40;99.90
30648;DHT22;17683;53.360;9.736;2023-08-24T09:29:00;24.60;99.90
30648;DHT22;17683;53.360;9.736;2023-08-24T09:31:36;24.60;99.90
30648;DHT22;17683;53.360;9.736;2023-08-24T09:34:06;24.80;99.90
30648;DHT22;17683;53.360;9.736;2023-08-24T09:36:35;24.90;99.90
30648;DHT22;17683;53.360;9.736;2023-08-24T09:39:03;24.80;99.90
30648;DHT22;17683;53.360;9.736;2023-08-24T09:41:49;24.80;99.90
30648;DHT22;17683;53.360;9.736;2023-08-24T09:44:17;24.90;99.90
30648;DHT22;17683;53.360;9.736;2023-08-24T09:46:43;25.00;99.90
30648;DHT22;17683;53.360;9.736;2023-08-24T09:49:12;25.20;99.90
30648;DHT22;17683;53.360;9.736;2023-08-24T09:51:39;25.40;99.90
30648;DHT22;17683;53.360;9.736;2023-08-24T09:54:07;25.50;99.90
30648;DHT22;17683;53.360;9.736;2023-08-24T09:56:38;25.60;99.90
30648;DHT22;17683;53.360;9.736;2023-08-24T09:59:17;25.70;99.90
30648;DHT22;17683;53.360;9.736;2023-08-24T10:01:48;25.80;99.90
30648;DHT22;17683;53.360;9.736;2023-08-24T10:04:22;25.90;99.90
30648;DHT22;17683;53.360;9.736;2023-08-24T10:06:48;25.90;99.90
30648;DHT22;17683;53.360;9.736;2023-08-24T10:09:25;26.10;99.90
30648;DHT22;17683;53.360;9.736;2023-08-24T10:11:56;26.10;99.90
30648;DHT22;17683;53.360;9.736;2023-08-24T10:14:41;26.20;99.90
30648;DHT22;17683;53.360;9.736;2023-08-24T10:17:11;26.30;99.90
30648;DHT22;17683;53.360;9.736;2023-08-24T10:19:37;26.20;99.90
30648;DHT22;17683;53.360;9.736;2023-08-24T10:22:04;26.20;99.90
30648;DHT22;17683;53.360;9.736;2023-08-24T10:24:31;26.30;99.90
30648;DHT22;17683;53.360;9.736;2023-08-24T10:26:58;26.30;99.90
30648;DHT22;17683;53.360;9.736;2023-08-24T10:29:26;26.40;99.90
30648;DHT22;17683;53.360;9.736;2023-08-24T10:31:53;26.30;99.90
30648;DHT22;17683;53.360;9.736;2023-08-24T10:34:19;26.30;99.90
30648;DHT22;17683;53.360;9.736;2023-08-24T10:36:48;26.50;99.90
30648;DHT22;17683;53.360;9.736;2023-08-24T10:39:14;26.50;99.90
30648;DHT22;17683;53.360;9.736;2023-08-24T10:44:24;26.80;99.90
30648;DHT22;17683;53.360;9.736;2023-08-24T10:47:12;27.00;99.90
30648;DHT22;17683;53.360;9.736;2023-08-24T10:50:01;27.00;99.90
30648;DHT22;17683;53.360;9.736;2023-08-24T10:52:31;27.20;99.90
30648;DHT22;17683;53.360;9.736;2023-08-24T10:55:00;27.30;99.90
30648;DHT22;17683;53.360;9.736;2023-08-24T10:57:31;27.40;99.90
30648;DHT22;17683;53.360;9.736;2023-08-24T11:00:08;27.40;99.90
30648;DHT22;17683;53.360;9.736;2023-08-24T11:02:44;27.40;99.90
30648;DHT22;17683;53.360;9.736;2023-08-24T11:05:27;27.50;99.90
30648;DHT22;17683;53.360;9.736;2023-08-24T11:07:59;27.60;99.90
30648;DHT22;17683;53.360;9.736;2023-08-24T11:10:49;27.80;99.90
30648;DHT22;17683;53.360;9.736;2023-08-24T11:13:16;28.00;99.90
30648;DHT22;17683;53.360;9.736;2023-08-24T11:15:46;28.20;99.90
30648;DHT22;17683;53.360;9.736;2023-08-24T11:18:13;28.10;99.90
30648;DHT22;17683;53.360;9.736;2023-08-24T11:20:46;28.10;99.90
30648;DHT22;17683;53.360;9.736;2023-08-24T11:23:14;28.30;99.90
30648;DHT22;17683;53.360;9.736;2023-08-24T11:25:40;28.30;99.90
30648;DHT22;17683;53.360;9.736;2023-08-24T11:28:06;28.30;99.90
30648;DHT22;17683;53.360;9.736;2023-08-24T11:30:32;28.20;99.90
30648;DHT22;17683;53.360;9.736;2023-08-24T11:32:58;28.30;99.90
30648;DHT22;17683;53.360;9.736;2023-08-24T11:35:25;28.20;99.30
30648;DHT22;17683;53.360;9.736;2023-08-24T11:37:55;28.10;99.90
30648;DHT22;17683;53.360;9.736;2023-08-24T11:40:21;27.80;99.30
30648;DHT22;17683;53.360;9.736;2023-08-24T11:42:58;27.70;99.30
30648;DHT22;17683;53.360;9.736;2023-08-24T11:45:24;27.40;99.80
30648;DHT22;17683;53.360;9.736;2023-08-24T11:47:54;27.50;99.10
30648;DHT22;17683;53.360;9.736;2023-08-24T11:50:20;27.40;99.70
30648;DHT22;17683;53.360;9.736;2023-08-24T11:52:46;27.60;99.90
30648;DHT22;17683;53.360;9.736;2023-08-24T11:55:12;27.70;99.80
30648;DHT22;17683;53.360;9.736;2023-08-24T11:57:38;27.90;99.10
30648;DHT22;17683;53.360;9.736;2023-08-24T12:00:04;27.90;98.90
30648;DHT22;17683;53.360;9.736;2023-08-24T12:02:31;27.80;99.40
30648;DHT22;17683;53.360;9.736;2023-08-24T12:04:58;27.80;99.20
30648;DHT22;17683;53.360;9.736;2023-08-24T12:07:24;27.80;99.90
30648;DHT22;17683;53.360;9.736;2023-08-24T12:09:52;27.80;99.90
30648;DHT22;17683;53.360;9.736;2023-08-24T12:12:20;27.90;99.20
30648;DHT22;17683;53.360;9.736;2023-08-24T12:14:47;27.90;99.20
30648;DHT22;17683;53.360;9.736;2023-08-24T12:17:14;27.90;98.90
30648;DHT22;17683;53.360;9.736;2023-08-24T12:19:56;27.70;99.30
30648;DHT22;17683;53.360;9.736;2023-08-24T12:22:22;27.60;99.30
30648;DHT22;17683;53.360;9.736;2023-08-24T12:24:48;27.20;99.00
30648;DHT22;17683;53.360;9.736;2023-08-24T12:27:18;27.30;99.10
30648;DHT22;17683;53.360;9.736;2023-08-24T12:29:45;27.40;99.90
30648;DHT22;17683;53.360;9.736;2023-08-24T12:32:11;27.20;99.20
30648;DHT22;17683;53.360;9.736;2023-08-24T12:34:37;27.50;99.90
30648;DHT22;17683;53.360;9.736;2023-08-24T12:37:03;27.60;99.70
30648;DHT22;17683;53.360;9.736;2023-08-24T12:39:35;27.80;99.40
30648;DHT22;17683;53.360;9.736;2023-08-24T12:42:02;27.90;99.40
30648;DHT22;17683;53.360;9.736;2023-08-24T12:44:28;27.80;99.10
30648;DHT22;17683;53.360;9.736;2023-08-24T12:46:53;27.90;99.40
30648;DHT22;17683;53.360;9.736;2023-08-24T12:49:19;28.00;99.20
30648;DHT22;17683;53.360;9.736;2023-08-24T12:51:45;28.10;99.00
30648;DHT22;17683;53.360;9.736;2023-08-24T12:54:11;28.20;98.80
30648;DHT22;17683;53.360;9.736;2023-08-24T12:56:39;28.20;98.40
30648;DHT22;17683;53.360;9.736;2023-08-24T12:59:06;28.30;98.30
30648;DHT22;17683;53.360;9.736;2023-08-24T13:01:31;28.30;98.50
30648;DHT22;17683;53.360;9.736;2023-08-24T13:03:57;28.20;97.30
30648;DHT22;17683;53.360;9.736;2023-08-24T13:06:23;28.10;98.00
30648;DHT22;17683;53.360;9.736;2023-08-24T13:08:49;28.00;98.50
30648;DHT22;17683;53.360;9.736;2023-08-24T13:11:15;27.90;98.90
30648;DHT22;17683;53.360;9.736;2023-08-24T13:13:40;27.40;98.10
30648;DHT22;17683;53.360;9.736;2023-08-24T13:16:07;27.30;99.30
30648;DHT22;17683;53.360;9.736;2023-08-24T13:18:33;27.40;99.50
30648;DHT22;17683;53.360;9.736;2023-08-24T13:20:58;27.30;99.70
30648;DHT22;17683;53.360;9.736;2023-08-24T13:23:24;27.30;99.90
30648;DHT22;17683;53.360;9.736;2023-08-24T13:25:50;27.30;99.90
30648;DHT22;17683;53.360;9.736;2023-08-24T13:28:16;27.30;99.90
30648;DHT22;17683;53.360;9.736;2023-08-24T13:30:42;27.30;99.90
30648;DHT22;17683;53.360;9.736;2023-08-24T13:33:08;27.30;99.90
30648;DHT22;17683;53.360;9.736;2023-08-24T13:35:34;27.30;99.90
30648;DHT22;17683;53.360;9.736;2023-08-24T13:38:00;27.40;99.90
30648;DHT22;17683;53.360;9.736;2023-08-24T13:40:25;27.40;99.90
30648;DHT22;17683;53.360;9.736;2023-08-24T13:42:51;27.50;99.90
30648;DHT22;17683;53.360;9.736;2023-08-24T13:45:17;27.60;99.90
30648;DHT22;17683;53.360;9.736;2023-08-24T13:47:44;27.60;99.90
30648;DHT22;17683;53.360;9.736;2023-08-24T13:50:10;27.60;99.90
30648;DHT22;17683;53.360;9.736;2023-08-24T13:52:35;27.70;99.90
30648;DHT22;17683;53.360;9.736;2023-08-24T13:55:01;27.70;99.90
30648;DHT22;17683;53.360;9.736;2023-08-24T13:57:29;27.70;99.80
30648;DHT22;17683;53.360;9.736;2023-08-24T13:59:55;27.80;99.90
30648;DHT22;17683;53.360;9.736;2023-08-24T14:02:21;27.90;99.60
30648;DHT22;17683;53.360;9.736;2023-08-24T14:04:46;28.00;99.80
30648;DHT22;17683;53.360;9.736;2023-08-24T14:07:12;28.00;99.30
30648;DHT22;17683;53.360;9.736;2023-08-24T14:09:38;28.10;99.30
30648;DHT22;17683;53.360;9.736;2023-08-24T14:12:03;28.00;98.40
30648;DHT22;17683;53.360;9.736;2023-08-24T14:14:29;28.00;98.60
30648;DHT22;17683;53.360;9.736;2023-08-24T14:16:55;28.00;99.90
30648;DHT22;17683;53.360;9.736;2023-08-24T14:19:22;27.80;99.90
30648;DHT22;17683;53.360;9.736;2023-08-24T14:21:48;27.80;99.90
30648;DHT22;17683;53.360;9.736;2023-08-24T14:24:14;27.60;99.90
30648;DHT22;17683;53.360;9.736;2023-08-24T14:26:40;27.50;99.90
30648;DHT22;17683;53.360;9.736;2023-08-24T14:29:11;27.50;99.90
30648;DHT22;17683;53.360;9.736;2023-08-24T14:31:37;27.30;99.90
30648;DHT22;17683;53.360;9.736;2023-08-24T14:34:03;27.20;99.90
30648;DHT22;17683;53.360;9.736;2023-08-24T14:36:29;27.20;99.90
30648;DHT22;17683;53.360;9.736;2023-08-24T14:38:55;27.20;99.90
30648;DHT22;17683;53.360;9.736;2023-08-24T14:41:21;27.20;99.90
30648;DHT22;17683;53.360;9.736;2023-08-24T14:43:47;27.00;99.90
30648;DHT22;17683;53.360;9.736;2023-08-24T14:46:13;26.80;99.90
30648;DHT22;17683;53.360;9.736;2023-08-24T14:48:39;26.60;99.90
30648;DHT22;17683;53.360;9.736;2023-08-24T14:51:05;26.60;99.90
30648;DHT22;17683;53.360;9.736;2023-08-24T14:53:31;26.60;99.90
30648;DHT22;17683;53.360;9.736;2023-08-24T14:55:57;26.60;99.90
30648;DHT22;17683;53.360;9.736;2023-08-24T14:58:27;26.60;99.90
30648;DHT22;17683;53.360;9.736;2023-08-24T15:00:54;26.50;99.90
30648;DHT22;17683;53.360;9.736;2023-08-24T15:03:21;26.50;99.90
30648;DHT22;17683;53.360;9.736;2023-08-24T15:05:57;26.40;99.90
30648;DHT22;17683;53.360;9.736;2023-08-24T15:08:23;26.60;99.90
30648;DHT22;17683;53.360;9.736;2023-08-24T15:10:49;26.50;99.90
30648;DHT22;17683;53.360;9.736;2023-08-24T15:13:15;26.40;99.90
30648;DHT22;17683;53.360;9.736;2023-08-24T15:15:41;26.30;99.90
30648;DHT22;17683;53.360;9.736;2023-08-24T15:18:09;26.20;99.90
30648;DHT22;17683;53.360;9.736;2023-08-24T15:20:35;26.20;99.90
30648;DHT22;17683;53.360;9.736;2023-08-24T15:23:00;26.10;99.90
30648;DHT22;17683;53.360;9.736;2023-08-24T15:25:27;26.00;99.90
30648;DHT22;17683;53.360;9.736;2023-08-24T15:27:53;26.00;99.90
30648;DHT22;17683;53.360;9.736;2023-08-24T15:30:19;25.90;99.90
30648;DHT22;17683;53.360;9.736;2023-08-24T15:32:45;25.80;99.90
30648;DHT22;17683;53.360;9.736;2023-08-24T15:35:11;25.70;99.90
30648;DHT22;17683;53.360;9.736;2023-08-24T15:37:37;25.70;99.90
30648;DHT22;17683;53.360;9.736;2023-08-24T15:40:05;25.70;99.90
30648;DHT22;17683;53.360;9.736;2023-08-24T15:42:31;25.60;99.90
30648;DHT22;17683;53.360;9.736;2023-08-24T15:44:57;25.60;99.90